Main page
Satellite images 10-day forecastsClimateMarine weather Cyclones Lightning AirportsFAQ Newsletter About
Weather : Europe Africa North America South America Asia Australia-Oceania Others
Languages Contact

Longyearbyen, Longyear,

Svalbard Airport

latitude: Norway, longitude: 78-15N, elevation: 015-28E m


METAR: ENSB 031150Z 16005KT 9999 -SNRA FEW015 BKN025 01/M01 Q0992 NOSIG RMK WIND 1400FT 11012KT
TAF: ENSB 0312/0412 15008KT 9999 FEW020 BKN050 TEMPO 0312/0314 13018KT 4000 -SNRA VV014

Time: 13:39 (12:39 UTC)

Current weather observation

The report was made 49 minutes ago, at 11:50 UTC
Wind 5 kt from the South/Southeast
Temperature 1°C
Humidity 86%
Pressure 992 hPa
Visibility 10 km or more
Few clouds at a height of 1500 ft
Broken clouds at a height of 2500 ft
light snow, rain

Change units

Forecast

Forecast valid from 03 at 12 UTC to 04 at 12 UTC
Wind 8 kt from the South/Southeast
Visibility 10 km or more
Few clouds at a height of 2000 ft
Broken clouds at a height of 5000 ft
Temporary
from 03 at 12 UTC to 03 at 14 UTC
Wind 18 kt from the Southeast
Visibility: 4000 m
at a height of 1400 ft
light snow, rain
The information on this site is subject to a disclaimer
Weather : Europe Africa North America South America Asia Australia-Oceania Others
Satellite images 10-day forecastsClimateMarine weather Cyclones Lightning AirportsFAQ Languages Contact Newsletter About